Terminal Aerodrome Forecast
Issued by NWS Rapid City, SD

Home | Current Version | Previous Version | Text Only | Print | Product List | Glossary On
Versions: 1 2 3 4 5 6 7 8 9 10 11 12 13 14 15 16 17 18 19 20 21 22 23 24 25 26 27 28 29 30 31 32 33 34
554
FTUS43 KUNR 131120
TAFRAP
TAF
KRAP 131120Z 1312/1412 13012KT P6SM OVC008
     FM131500 14005KT P6SM SCT008 OVC012
     FM131800 12010KT P6SM SCT025 BKN070
     FM140100 33020G30KT P6SM -SHRA BKN070=

USA.gov is the U.S. government's official web portal to all federal, state and local government web resources and services.